Time;durP1;ratioP1;P1;durP2;ratioP2;P2;SDS_P1;SDS_P2;PMS_P1;PMS_P2;Temp;Humidity;BMP_temperature;BMP_pressure;BME280_temperature;BME280_humidity;BME280_pressure;Samples;Min_cycle;Max_cycle;Signal;HPM_P1;HPM_P2
2021/10/27 00:00:50;;;;;;;30.30;19.42;;;;;;;7.25;85.85;99437.31;5043761;28;20115;-60
2021/10/27 00:03:15;;;;;;;28.50;18.60;;;;;;;7.53;86.54;99492.38;5043725;28;20500;-60
2021/10/27 00:05:40;;;;;;;29.10;19.33;;;;;;;7.49;86.82;99487.38;5041984;28;20390;-60
2021/10/27 00:08:06;;;;;;;27.70;19.00;;;;;;;7.61;87.20;99490.06;5053868;28;20072;-61
2021/10/27 00:10:31;;;;;;;29.80;19.17;;;;;;;7.64;87.90;99492.44;5060540;28;20533;-61
2021/10/27 00:12:57;;;;;;;29.92;19.85;;;;;;;7.66;87.29;99485.41;5045036;28;20021;-60
2021/10/27 00:15:22;;;;;;;28.77;18.45;;;;;;;7.82;89.00;99487.78;5032226;28;20171;-60
2021/10/27 00:17:48;;;;;;;27.50;18.23;;;;;;;7.89;89.47;99499.38;5037160;28;20041;-60
2021/10/27 00:20:13;;;;;;;32.05;21.33;;;;;;;7.92;94.62;99491.38;5038964;28;20032;-60
2021/10/27 00:22:39;;;;;;;34.53;22.85;;;;;;;8.05;95.32;99499.16;5061318;28;20024;-60
2021/10/27 00:25:06;;;;;;;32.90;21.27;;;;;;;8.20;96.05;99492.06;5048635;28;20024;-60
2021/10/27 00:27:31;;;;;;;36.88;21.75;;;;;;;8.42;96.78;99501.78;5038137;28;20499;-60
2021/10/27 00:29:56;;;;;;;31.77;21.98;;;;;;;8.50;95.96;99494.25;5045980;28;20122;-60
2021/10/27 00:32:22;;;;;;;32.40;22.30;;;;;;;8.46;95.74;99479.88;5058331;28;20028;-60
2021/10/27 00:34:47;;;;;;;32.15;21.23;;;;;;;8.59;95.59;99492.78;5028306;28;20043;-60
2021/10/27 00:37:13;;;;;;;31.30;21.88;;;;;;;8.57;96.10;99476.50;5026439;28;20040;-60
2021/10/27 00:39:38;;;;;;;33.42;22.63;;;;;;;8.72;95.20;99482.34;5027187;28;20033;-60
2021/10/27 00:42:05;;;;;;;35.05;21.15;;;;;;;8.40;95.31;99434.47;5071998;28;20036;-61
2021/10/27 00:44:30;;;;;;;30.38;21.45;;;;;;;8.67;95.44;99490.47;5051235;28;20491;-61
2021/10/27 00:47:01;;;;;;;30.92;21.50;;;;;;;8.68;94.85;99473.97;5069236;28;20032;-60
2021/10/27 00:49:29;;;;;;;29.58;20.83;;;;;;;8.64;95.19;99478.53;5046455;28;20116;-60
2021/10/27 00:51:54;;;;;;;31.83;20.73;;;;;;;8.65;94.62;99459.47;5041252;28;20471;-60
2021/10/27 00:54:20;;;;;;;30.35;21.85;;;;;;;8.74;94.99;99485.66;5026384;28;20075;-60
2021/10/27 00:56:45;;;;;;;30.48;20.90;;;;;;;8.69;95.11;99488.59;5041773;28;20028;-60
2021/10/27 00:59:10;;;;;;;31.45;21.52;;;;;;;8.72;94.63;99487.53;5055988;28;20123;-60
2021/10/27 01:01:36;;;;;;;32.08;20.10;;;;;;;8.43;94.79;99436.03;5053381;28;20648;-60
2021/10/27 01:04:02;;;;;;;25.95;19.88;;;;;;;8.66;94.87;99468.88;5058051;28;20071;-60
2021/10/27 01:06:28;;;;;;;29.88;20.27;;;;;;;8.49;94.71;99439.94;5055599;28;20032;-60
2021/10/27 01:08:53;;;;;;;28.45;20.20;;;;;;;8.77;94.50;99478.47;5058794;28;20051;-60
2021/10/27 01:11:19;;;;;;;28.73;20.73;;;;;;;8.76;94.94;99476.00;5049643;28;20375;-60
2021/10/27 01:13:47;;;;;;;30.77;20.55;;;;;;;8.56;94.65;99439.41;5062048;28;20029;-60
2021/10/27 01:16:12;;;;;;;29.02;20.73;;;;;;;8.78;94.45;99474.09;5064492;28;20041;-60
2021/10/27 01:18:37;;;;;;;32.40;20.25;;;;;;;8.25;94.87;99392.34;5061107;28;20033;-60
2021/10/27 01:21:03;;;;;;;30.90;20.52;;;;;;;8.76;95.00;99473.41;5067902;28;21202;-60
2021/10/27 01:23:30;;;;;;;28.75;20.60;;;;;;;8.75;95.36;99464.81;5062611;28;20399;-60
2021/10/27 01:26:03;;;;;;;29.88;20.48;;;;;;;8.85;94.59;99470.97;5031827;28;20125;-60
2021/10/27 01:28:29;;;;;;;29.05;20.27;;;;;;;8.84;94.46;99469.31;5036549;28;20025;-60
2021/10/27 01:30:55;;;;;;;27.23;19.85;;;;;;;8.63;94.21;99422.47;5051964;28;20028;-60
2021/10/27 01:33:20;;;;;;;28.73;19.75;;;;;;;8.80;94.01;99460.09;5031211;28;20044;-60
2021/10/27 01:35:46;;;;;;;26.30;19.77;;;;;;;8.77;94.29;99460.31;5057972;28;20458;-60
2021/10/27 01:38:11;;;;;;;30.58;20.67;;;;;;;8.84;94.07;99452.94;5045072;28;20032;-60
2021/10/27 01:40:37;;;;;;;28.40;19.58;;;;;;;8.72;94.17;99446.03;5043148;28;20090;-58
2021/10/27 01:43:02;;;;;;;30.63;21.52;;;;;;;8.52;94.58;99408.63;5057765;28;20032;-60
2021/10/27 01:45:30;;;;;;;27.70;20.13;;;;;;;8.84;94.52;99458.13;5042314;28;20024;-60
2021/10/27 01:47:55;;;;;;;30.67;20.65;;;;;;;8.77;95.09;99446.53;5070246;28;20178;-60
2021/10/27 01:50:20;;;;;;;28.50;19.65;;;;;;;8.75;94.44;99448.44;5061721;28;20036;-60
2021/10/27 01:52:46;;;;;;;27.45;19.17;;;;;;;8.76;94.45;99463.03;5054248;28;20036;-60
2021/10/27 01:55:11;;;;;;;28.30;20.70;;;;;;;8.70;94.81;99455.72;5036472;28;20067;-61
2021/10/27 01:57:37;;;;;;;28.35;19.05;;;;;;;8.78;93.95;99445.59;5057074;28;20032;-60
2021/10/27 02:00:07;;;;;;;28.20;19.05;;;;;;;8.74;94.02;99454.53;5040912;28;20032;-61
2021/10/27 02:02:32;;;;;;;;;;;;;;;8.61;94.40;99433.88;5049900;28;20394;-61
2021/10/27 02:04:57;;;;;;;26.00;18.00;;;;;;;8.87;93.51;99457.06;5056535;28;20533;-61
2021/10/27 02:07:23;;;;;;;28.42;19.67;;;;;;;8.91;92.88;99450.69;5043769;28;20274;-60
2021/10/27 02:09:49;;;;;;;26.42;19.08;;;;;;;8.87;92.74;99454.47;5046590;28;20648;-60
2021/10/27 02:12:14;;;;;;;27.17;19.20;;;;;;;8.80;93.15;99446.31;5052572;28;20632;-60
2021/10/27 02:14:40;;;;;;;30.00;19.45;;;;;;;8.89;93.02;99456.03;5037836;28;20035;-60
2021/10/27 02:17:05;;;;;;;27.08;18.90;;;;;;;8.81;93.58;99455.75;5038709;28;20986;-60
2021/10/27 02:19:31;;;;;;;27.65;19.23;;;;;;;8.63;93.66;99417.28;5063190;28;20128;-60
2021/10/27 02:21:56;;;;;;;28.45;19.27;;;;;;;8.63;93.48;99424.22;5040637;28;20037;-60
2021/10/27 02:24:21;;;;;;;27.55;18.20;;;;;;;8.89;93.22;99458.63;5064754;28;20125;-60
2021/10/27 02:26:47;;;;;;;29.20;20.10;;;;;;;8.88;93.33;99463.91;5048150;28;20031;-60
2021/10/27 02:29:12;;;;;;;27.75;18.83;;;;;;;8.84;93.09;99458.13;5065720;28;20764;-61
2021/10/27 02:31:38;;;;;;;24.77;17.35;;;;;;;8.31;93.03;99380.72;5029144;28;20479;-60
2021/10/27 02:34:03;;;;;;;27.10;18.65;;;;;;;8.79;93.17;99455.03;5066752;28;20040;-60
2021/10/27 02:36:29;;;;;;;24.27;18.00;;;;;;;8.89;92.41;99465.53;5041959;28;20027;-59
2021/10/27 02:38:54;;;;;;;30.27;18.33;;;;;;;8.87;92.69;99477.81;5060308;28;20418;-60
2021/10/27 02:41:20;;;;;;;26.33;17.85;;;;;;;8.79;92.30;99460.22;5044725;28;20033;-60
2021/10/27 02:43:45;;;;;;;27.48;18.48;;;;;;;8.92;92.14;99479.13;5058658;28;20074;-60
2021/10/27 02:46:11;;;;;;;26.00;17.45;;;;;;;8.76;92.75;99461.28;5071198;28;20043;-60
2021/10/27 02:48:37;;;;;;;28.92;17.90;;;;;;;8.78;92.92;99474.97;5048525;28;20112;-60
2021/10/27 02:51:02;;;;;;;26.25;18.58;;;;;;;8.79;93.09;99480.97;5066392;28;20501;-60
2021/10/27 02:53:28;;;;;;;24.77;16.80;;;;;;;8.79;92.73;99468.00;5058513;28;20037;-60
2021/10/27 02:55:53;;;;;;;26.58;19.42;;;;;;;8.79;93.07;99473.19;5048111;28;20047;-59
2021/10/27 02:58:19;;;;;;;27.48;18.23;;;;;;;8.74;93.27;99465.72;5038725;28;20043;-60
2021/10/27 03:00:44;;;;;;;24.52;17.75;;;;;;;8.77;92.81;99477.66;5065209;28;20277;-60
2021/10/27 03:03:10;;;;;;;25.88;17.58;;;;;;;8.70;93.08;99459.13;5052448;28;20034;-60
2021/10/27 03:05:35;;;;;;;26.85;18.45;;;;;;;8.70;92.74;99471.25;5041722;28;20028;-60
2021/10/27 03:08:00;;;;;;;23.73;17.42;;;;;;;8.74;92.71;99459.72;5047002;28;20036;-60
2021/10/27 03:10:26;;;;;;;26.10;17.58;;;;;;;8.78;92.59;99455.97;5025886;28;20033;-60
2021/10/27 03:12:52;;;;;;;30.83;18.63;;;;;;;8.67;92.90;99449.00;5047550;28;20119;-60
2021/10/27 03:15:18;;;;;;;24.42;17.33;;;;;;;8.62;92.84;99453.69;5044504;28;20036;-60
2021/10/27 03:17:43;;;;;;;26.08;17.90;;;;;;;8.69;93.39;99456.63;5067032;28;20078;-60
2021/10/27 03:20:09;;;;;;;25.60;17.95;;;;;;;8.60;93.30;99448.59;5071564;28;20032;-61
2021/10/27 03:22:35;;;;;;;28.33;18.88;;;;;;;8.38;93.28;99418.19;5059081;28;20043;-60
2021/10/27 03:25:00;;;;;;;22.90;16.27;;;;;;;8.73;92.92;99464.09;5047942;28;20678;-60
2021/10/27 03:27:26;;;;;;;26.60;17.60;;;;;;;8.38;93.24;99413.00;5065942;28;20050;-60
2021/10/27 03:29:51;;;;;;;26.00;17.45;;;;;;;8.69;93.14;99459.22;5040710;28;20233;-60
2021/10/27 03:32:18;;;;;;;24.10;17.13;;;;;;;8.65;93.35;99469.00;5066264;28;20106;-60
2021/10/27 03:34:43;;;;;;;28.08;17.42;;;;;;;8.64;93.19;99459.56;5041588;28;20108;-60
2021/10/27 03:37:09;;;;;;;24.42;16.90;;;;;;;8.71;93.51;99471.16;5056910;28;20074;-61
2021/10/27 03:39:35;;;;;;;27.33;16.95;;;;;;;8.67;93.29;99472.31;5053558;28;20107;-60
2021/10/27 03:42:00;;;;;;;24.02;17.05;;;;;;;8.67;93.61;99469.72;5054879;28;20489;-60
2021/10/27 03:44:26;;;;;;;25.35;17.20;;;;;;;8.62;93.54;99448.50;5054909;28;20574;-60
2021/10/27 03:46:52;;;;;;;25.58;16.95;;;;;;;8.64;93.03;99447.44;5044170;28;20036;-60
2021/10/27 03:49:18;;;;;;;26.10;17.10;;;;;;;8.64;92.95;99469.94;5045324;28;20120;-60
2021/10/27 03:51:44;;;;;;;25.80;16.33;;;;;;;8.66;92.44;99474.06;5053754;28;20529;-60
2021/10/27 03:54:10;;;;;;;32.63;18.55;;;;;;;8.40;92.68;99439.66;5046456;28;20387;-60
2021/10/27 03:56:35;;;;;;;25.38;16.38;;;;;;;8.60;93.05;99482.31;5057591;28;20033;-60
2021/10/27 03:59:01;;;;;;;26.77;16.67;;;;;;;8.65;92.83;99474.19;5052723;28;20169;-60
2021/10/27 04:04:52;;;;;;;25.58;16.15;;;;;;;8.66;92.34;99476.66;4961732;28;20059;-60
2021/10/27 04:07:18;;;;;;;23.60;15.52;;;;;;;8.71;91.78;99480.72;5074000;28;20032;-60
2021/10/27 04:09:43;;;;;;;18.30;12.32;;;;;;;8.41;91.41;99438.69;5049993;28;20032;-60
2021/10/27 04:12:09;;;;;;;20.92;14.52;;;;;;;8.65;91.88;99488.00;5056339;28;20050;-60
2021/10/27 04:14:34;;;;;;;23.67;16.20;;;;;;;8.64;91.82;99477.72;5063555;28;20024;-60
2021/10/27 04:17:00;;;;;;;25.42;16.08;;;;;;;8.65;91.62;99494.91;5056951;28;20115;-60
2021/10/27 04:19:25;;;;;;;23.73;15.60;;;;;;;8.69;91.38;99492.94;5060242;28;20037;-60
2021/10/27 04:21:51;;;;;;;23.77;14.75;;;;;;;8.72;91.50;99487.53;5017824;28;20040;-60
2021/10/27 04:24:17;;;;;;;23.30;15.23;;;;;;;8.63;91.06;99479.50;5033305;28;20044;-59
2021/10/27 04:26:42;;;;;;;26.10;16.20;;;;;;;8.12;91.38;99407.09;5049005;28;20053;-60
2021/10/27 04:29:07;;;;;;;24.92;16.48;;;;;;;8.58;91.73;99486.78;5064985;28;20025;-60
2021/10/27 04:31:33;;;;;;;21.48;15.18;;;;;;;8.65;91.27;99489.72;5065671;28;20539;-60
2021/10/27 04:33:58;;;;;;;23.38;16.08;;;;;;;8.54;91.00;99487.09;5040974;28;20029;-60
2021/10/27 04:36:24;;;;;;;22.30;14.57;;;;;;;8.63;91.44;99491.63;5033427;28;20025;-60
2021/10/27 04:38:49;;;;;;;23.58;15.45;;;;;;;8.62;90.92;99492.56;5061495;28;20035;-60
2021/10/27 04:41:15;;;;;;;22.23;14.23;;;;;;;8.50;91.51;99472.69;5062814;28;20517;-59
2021/10/27 04:43:40;;;;;;;24.13;16.23;;;;;;;8.29;91.07;99442.19;5043108;28;20107;-60
2021/10/27 04:46:06;;;;;;;22.63;13.75;;;;;;;8.59;91.28;99492.78;5073818;28;20044;-60
2021/10/27 04:48:31;;;;;;;21.98;15.20;;;;;;;8.55;91.51;99480.97;5043530;28;20029;-60
2021/10/27 04:50:57;;;;;;;20.23;14.52;;;;;;;8.55;91.60;99489.56;5020698;28;20043;-60
2021/10/27 04:53:25;;;;;;;24.67;15.35;;;;;;;8.55;91.65;99481.81;4991025;28;20107;-60
2021/10/27 04:55:52;;;;;;;21.85;14.10;;;;;;;8.51;91.38;99477.78;5030049;28;20021;-60
2021/10/27 04:58:17;;;;;;;20.45;13.75;;;;;;;8.58;91.18;99483.34;5053355;28;20032;-61
2021/10/27 05:00:43;;;;;;;21.55;14.50;;;;;;;8.55;90.62;99479.22;5059629;28;20028;-60
2021/10/27 05:03:08;;;;;;;21.13;13.73;;;;;;;8.41;90.68;99454.25;5049192;28;20478;-60
2021/10/27 05:05:40;;;;;;;21.77;14.68;;;;;;;8.54;90.62;99487.94;5041424;28;20025;-60
2021/10/27 05:08:05;;;;;;;23.92;14.95;;;;;;;8.54;91.09;99485.34;4998259;28;20020;-59
2021/10/27 05:10:31;;;;;;;21.08;14.73;;;;;;;8.51;91.64;99479.56;5055666;28;20056;-59
2021/10/27 05:12:56;;;;;;;21.80;14.48;;;;;;;8.51;91.26;99488.16;5038756;28;20585;-60
2021/10/27 05:15:21;;;;;;;23.23;13.65;;;;;;;8.58;90.72;99502.31;5030295;28;20052;-60
2021/10/27 05:17:47;;;;;;;21.20;14.57;;;;;;;8.50;90.59;99491.66;5056344;28;20146;-60
2021/10/27 05:20:14;;;;;;;19.27;12.52;;;;;;;8.42;90.61;99476.66;5057017;28;20088;-60
2021/10/27 05:22:39;;;;;;;22.60;14.48;;;;;;;8.52;90.79;99484.59;5042920;28;20029;-60
2021/10/27 05:25:05;;;;;;;20.55;13.43;;;;;;;8.53;90.46;99477.69;5047126;28;20057;-60
2021/10/27 05:27:31;;;;;;;23.05;15.52;;;;;;;8.56;90.41;99487.81;5034876;28;20491;-60
2021/10/27 05:29:57;;;;;;;20.10;13.65;;;;;;;8.54;91.03;99494.88;5067120;28;20032;-60
2021/10/27 05:32:24;;;;;;;27.30;17.13;;;;;;;8.52;90.50;99494.97;5062379;28;20454;-60
2021/10/27 05:34:50;;;;;;;26.20;17.63;;;;;;;8.55;90.50;99502.53;5042188;28;20031;-60
2021/10/27 05:37:15;;;;;;;21.70;15.82;;;;;;;8.47;90.65;99481.53;5048784;28;20036;-60
2021/10/27 05:39:41;;;;;;;19.77;13.52;;;;;;;8.49;90.96;99499.53;5060893;28;20706;-60
2021/10/27 05:42:11;;;;;;;20.17;12.75;;;;;;;8.52;90.55;99497.56;5061288;28;20040;-60
2021/10/27 05:44:37;;;;;;;20.10;13.38;;;;;;;8.54;89.86;99498.31;5062774;28;20027;-59
2021/10/27 05:47:03;;;;;;;20.80;13.43;;;;;;;8.18;90.47;99455.91;5078513;28;20028;-61
2021/10/27 05:49:36;;;;;;;20.27;13.50;;;;;;;8.20;89.48;99448.84;5053540;28;20106;-60
2021/10/27 05:55:02;;;;;;;19.08;12.75;;;;;;;8.46;90.18;99491.06;5036846;28;20110;-60
2021/10/27 05:57:36;;;;;;;20.65;13.57;;;;;;;8.46;90.33;99496.25;5056519;28;20047;-60
2021/10/27 06:00:06;;;;;;;19.52;12.65;;;;;;;8.46;89.76;99492.81;5062717;28;20493;-60
2021/10/27 06:02:31;;;;;;;19.17;13.15;;;;;;;8.48;89.83;99487.53;5046512;28;20032;-60
2021/10/27 06:04:57;;;;;;;18.80;11.57;;;;;;;8.25;89.61;99451.94;5057164;28;20039;-60
2021/10/27 06:07:22;;;;;;;19.13;12.57;;;;;;;8.50;89.24;99493.44;5053069;28;20140;-60
2021/10/27 06:09:49;;;;;;;20.70;12.40;;;;;;;8.45;89.71;99492.00;5049747;28;20471;-60
2021/10/27 06:12:16;;;;;;;17.02;11.25;;;;;;;8.52;89.35;99496.75;5078852;28;20032;-60
2021/10/27 06:14:42;;;;;;;17.38;11.00;;;;;;;8.38;88.35;99464.03;5046596;28;20021;-60
2021/10/27 06:17:07;;;;;;;17.35;10.73;;;;;;;8.67;88.17;99506.03;5054358;28;20442;-60
2021/10/27 06:19:32;;;;;;;16.63;11.10;;;;;;;8.61;88.08;99498.69;5060251;28;20455;-60
2021/10/27 06:21:58;;;;;;;16.25;10.98;;;;;;;8.61;88.58;99503.84;4968299;28;20068;-60
2021/10/27 06:24:23;;;;;;;18.02;11.07;;;;;;;8.44;89.44;99477.38;5029638;28;20482;-60
2021/10/27 06:26:51;;;;;;;14.80;10.63;;;;;;;8.66;88.12;99512.13;5057654;28;20039;-60
2021/10/27 06:29:28;;;;;;;18.90;12.27;;;;;;;8.72;87.73;99518.66;5055050;28;20056;-60
2021/10/27 06:32:07;;;;;;;17.65;11.38;;;;;;;8.49;88.26;99476.22;5049899;28;20577;-59
2021/10/27 06:34:36;;;;;;;17.27;11.38;;;;;;;8.76;87.04;99518.31;5060499;28;20502;-60
2021/10/27 06:37:55;;;;;;;16.20;11.52;;;;;;;8.55;86.60;99486.16;5034089;28;20036;-60
2021/10/27 06:47:59;;;;;;;17.35;10.63;;;;;;;8.73;86.60;99534.09;5062814;28;20178;-60
2021/10/27 06:50:24;;;;;;;17.00;10.93;;;;;;;8.63;86.64;99531.34;5066545;28;21345;-60
2021/10/27 06:52:50;;;;;;;15.85;10.63;;;;;;;8.62;87.40;99541.81;5036284;28;20094;-60
2021/10/27 06:55:16;;;;;;;18.60;11.80;;;;;;;8.59;87.69;99540.25;4966113;28;20032;-60
2021/10/27 06:57:43;;;;;;;18.83;11.43;;;;;;;8.56;87.84;99545.69;5059097;28;20610;-60
2021/10/27 07:00:17;;;;;;;18.70;11.90;;;;;;;8.61;87.54;99553.94;5046213;28;20060;-60
2021/10/27 07:05:46;;;;;;;16.95;10.63;;;;;;;8.30;86.96;99513.78;5060105;28;20423;-59
2021/10/27 07:16:34;;;;;;;16.25;10.60;;;;;;;8.57;85.97;99569.84;5061967;28;20099;-60
2021/10/27 07:18:59;;;;;;;15.60;10.55;;;;;;;8.59;86.52;99563.59;5066734;28;20028;-60
2021/10/27 07:21:25;;;;;;;19.27;11.95;;;;;;;8.45;86.01;99538.66;5052674;28;20395;-60
2021/10/27 07:23:50;;;;;;;16.45;11.20;;;;;;;8.34;86.94;99517.84;5062580;28;20016;-59
2021/10/27 07:26:17;;;;;;;17.90;10.88;;;;;;;8.61;87.35;99566.91;5053822;28;20040;-59
2021/10/27 07:28:45;;;;;;;16.55;9.82;;;;;;;8.55;86.97;99551.78;5023651;28;20032;-60
2021/10/27 07:31:14;;;;;;;15.00;9.88;;;;;;;8.55;87.07;99569.94;5067181;28;20028;-59
2021/10/27 07:33:40;;;;;;;15.63;11.10;;;;;;;8.59;86.72;99576.56;5067188;28;20063;-59
2021/10/27 07:36:24;;;;;;;15.13;10.13;;;;;;;8.30;87.18;99520.72;5050828;28;20039;-60
2021/10/27 07:41:34;;;;;;;19.05;11.70;;;;;;;8.51;87.02;99570.28;5051338;28;20098;-60
2021/10/27 07:44:03;;;;;;;18.90;12.38;;;;;;;8.51;86.85;99568.50;5051181;28;20533;-59
2021/10/27 07:46:28;;;;;;;18.27;11.93;;;;;;;8.61;86.58;99585.03;5051772;28;20046;-60
2021/10/27 07:48:54;;;;;;;17.55;10.98;;;;;;;8.54;86.77;99577.81;5067843;28;20028;-60
2021/10/27 07:51:19;;;;;;;17.00;11.60;;;;;;;8.62;86.67;99588.50;5038293;28;20040;-60
2021/10/27 07:53:44;;;;;;;18.77;10.70;;;;;;;8.61;86.58;99572.09;5048848;28;20674;-60
2021/10/27 07:56:10;;;;;;;17.35;9.27;;;;;;;8.68;85.62;99587.22;5037235;28;20034;-60
2021/10/27 07:58:36;;;;;;;14.82;10.15;;;;;;;8.76;85.64;99587.50;5066243;28;20036;-60
2021/10/27 08:01:01;;;;;;;14.75;10.50;;;;;;;8.59;85.50;99562.78;5036469;28;20064;-60
2021/10/27 08:03:28;;;;;;;18.23;10.32;;;;;;;8.65;86.01;99586.50;5064685;28;20043;-60
2021/10/27 08:05:56;;;;;;;13.60;9.57;;;;;;;8.56;84.45;99556.06;5048750;28;20028;-60
2021/10/27 08:08:22;;;;;;;14.30;9.02;;;;;;;8.83;84.74;99579.19;5051870;28;20387;-59
2021/10/27 08:10:50;;;;;;;14.30;8.70;;;;;;;8.69;85.18;99547.38;5060293;28;20036;-60
2021/10/27 08:13:15;;;;;;;13.18;8.65;;;;;;;8.92;84.71;99582.88;4976819;28;20478;-60
2021/10/27 08:15:42;;;;;;;11.65;7.68;;;;;;;9.06;81.74;99592.25;5027901;28;20037;-59
2021/10/27 08:18:10;;;;;;;13.65;8.07;;;;;;;8.89;83.24;99548.53;5055726;28;20039;-60
2021/10/27 08:20:36;;;;;;;15.00;8.23;;;;;;;9.12;84.48;99589.22;5043295;28;20103;-59
2021/10/27 08:23:03;;;;;;;11.48;6.32;;;;;;;9.02;79.06;99541.53;5062499;28;20036;-60
2021/10/27 08:25:32;;;;;;;10.23;6.25;;;;;;;9.36;77.33;99585.75;5028631;28;20115;-60
2021/10/27 08:28:03;;;;;;;10.33;6.77;;;;;;;9.45;75.17;99584.25;5024815;28;20054;-59
2021/10/27 08:30:37;;;;;;;11.07;6.15;;;;;;;9.37;74.96;99580.47;5049200;28;20036;-60
2021/10/27 08:33:06;;;;;;;10.35;6.13;;;;;;;9.50;73.54;99577.78;5055617;28;20043;-59
2021/10/27 08:35:34;;;;;;;12.30;7.13;;;;;;;9.55;74.61;99585.25;5069172;28;20036;-60
2021/10/27 08:37:59;;;;;;;10.73;6.72;;;;;;;9.43;76.76;99579.19;5030487;28;20044;-60
2021/10/27 08:40:26;;;;;;;11.55;7.10;;;;;;;9.37;79.14;99588.25;5051355;28;20043;-59
2021/10/27 08:42:51;;;;;;;10.85;7.43;;;;;;;9.20;79.80;99580.88;5032851;28;20025;-60
2021/10/27 08:45:17;;;;;;;15.57;8.20;;;;;;;9.15;80.67;99578.63;5063456;28;20036;-59
2021/10/27 08:47:48;;;;;;;12.05;7.65;;;;;;;9.11;81.08;99579.78;5046466;28;20499;-59
2021/10/27 08:50:14;;;;;;;12.95;7.32;;;;;;;9.11;81.50;99578.94;5049466;28;20036;-60
2021/10/27 08:52:41;;;;;;;10.98;7.22;;;;;;;9.12;81.20;99580.59;5063875;28;20024;-59
2021/10/27 08:55:07;;;;;;;12.05;7.10;;;;;;;9.08;81.50;99580.00;5059488;28;20418;-59
2021/10/27 08:57:33;;;;;;;11.70;7.60;;;;;;;9.16;81.73;99582.88;5040654;28;20024;-60
2021/10/27 10:04:03;;;;;;;7.78;4.72;;;;;;;10.79;71.57;99564.47;5065059;28;20105;-60
2021/10/27 10:06:34;;;;;;;7.68;4.57;;;;;;;10.87;72.18;99562.06;5038605;28;20382;-59
2021/10/27 10:09:01;;;;;;;8.52;5.13;;;;;;;11.00;70.26;99571.47;5059103;28;20101;-59
2021/10/27 10:11:27;;;;;;;14.88;10.23;;;;;;;10.99;71.67;99575.03;5047653;28;20313;-60
2021/10/27 10:14:06;;;;;;;10.00;7.35;;;;;;;10.72;71.09;99521.69;5045106;28;21644;-59
2021/10/27 10:16:36;;;;;;;9.80;6.10;;;;;;;10.87;72.55;99527.41;5064138;28;20487;-60
2021/10/27 10:19:08;;;;;;;8.05;5.20;;;;;;;11.07;71.97;99570.84;5065321;28;20060;-60
2021/10/27 10:21:35;;;;;;;8.82;5.20;;;;;;;11.06;71.23;99558.81;5028944;28;20051;-60
2021/10/27 10:24:22;;;;;;;9.15;5.45;;;;;;;11.23;69.98;99564.41;5050082;28;20060;-60
2021/10/27 10:26:49;;;;;;;8.15;5.22;;;;;;;11.20;68.91;99554.25;5066290;28;20028;-60
2021/10/27 10:29:49;;;;;;;8.50;4.88;;;;;;;11.24;69.12;99559.06;5044733;28;20032;-59
2021/10/27 10:32:29;;;;;;;8.88;5.00;;;;;;;11.43;68.82;99552.38;5061321;28;20067;-60
2021/10/27 10:35:21;;;;;;;10.57;5.30;;;;;;;11.42;70.02;99561.13;5064178;28;20029;-60
2021/10/27 10:43:40;;;;;;;7.85;5.10;;;;;;;11.58;67.91;99548.47;5067271;28;20047;-59
2021/10/27 10:57:32;;;;;;;7.60;4.18;;;;;;;11.84;64.33;99540.25;5059126;28;20661;-59
2021/10/27 11:22:22;;;;;;;8.80;4.10;;;;;;;12.36;63.09;99520.16;5043613;28;20090;-59
2021/10/27 11:37:31;;;;;;;9.32;4.20;;;;;;;12.79;62.13;99482.44;5032269;28;20138;-59
2021/10/27 11:40:18;;;;;;;6.88;3.75;;;;;;;12.89;62.72;99482.44;5047441;28;20033;-59
2021/10/27 11:42:56;;;;;;;7.50;4.28;;;;;;;12.90;62.27;99476.25;5038034;28;20073;-60
2021/10/27 11:47:59;;;;;;;7.60;4.72;;;;;;;12.84;63.71;99438.47;5045503;28;20044;-60
2021/10/27 11:50:31;;;;;;;8.80;3.95;;;;;;;13.07;62.88;99448.63;5049615;28;20129;-60
2021/10/27 11:52:57;;;;;;;7.40;4.10;;;;;;;13.38;61.56;99466.72;5042564;28;20040;-59
2021/10/27 11:55:28;;;;;;;6.15;3.33;;;;;;;13.20;59.73;99436.09;5055744;28;20040;-60
2021/10/27 11:57:54;;;;;;;6.07;3.22;;;;;;;13.46;58.03;99462.44;5050521;28;20055;-59
2021/10/27 12:00:47;;;;;;;8.10;3.40;;;;;;;13.65;54.94;99460.72;5044127;28;20782;-60
2021/10/27 12:03:16;;;;;;;6.60;3.42;;;;;;;13.77;56.46;99453.53;5053935;28;20505;-60
2021/10/27 12:19:13;;;;;;;6.45;3.20;;;;;;;14.06;53.99;99418.56;5051809;28;20602;-59
2021/10/27 12:21:49;;;;;;;6.15;3.10;;;;;;;14.08;55.68;99417.44;5031186;28;20028;-59
2021/10/27 12:24:17;;;;;;;5.68;2.97;;;;;;;14.11;54.66;99416.31;5051823;28;20021;-59
2021/10/27 12:26:44;;;;;;;6.22;2.95;;;;;;;14.01;56.52;99419.81;5050013;28;20067;-59
2021/10/27 12:29:15;;;;;;;6.45;2.83;;;;;;;13.96;55.61;99409.00;5044365;28;20140;-59
2021/10/27 12:31:42;;;;;;;8.35;2.97;;;;;;;13.78;54.39;99366.28;5046960;28;20024;-59
2021/10/27 12:34:44;;;;;;;7.00;2.67;;;;;;;14.13;54.09;99415.22;5064848;28;20082;-59
2021/10/27 12:37:33;;;;;;;5.35;2.70;;;;;;;14.21;52.91;99410.03;5038700;28;20416;-59
2021/10/27 12:40:13;;;;;;;6.97;2.95;;;;;;;14.28;52.92;99406.84;5047363;28;20102;-60
2021/10/27 12:42:38;;;;;;;;;;;;;;;14.35;52.44;99393.03;5057736;28;20466;-60
2021/10/27 12:45:04;;;;;;;5.55;2.40;;;;;;;14.47;52.67;99396.22;5038711;28;19919;-60
2021/10/27 12:47:33;;;;;;;6.20;3.00;;;;;;;14.31;52.43;99356.84;5059266;28;20099;-60
2021/10/27 12:50:10;;;;;;;9.07;2.90;;;;;;;14.30;51.95;99340.31;5061624;28;20032;-59
2021/10/27 12:52:38;;;;;;;41.83;29.10;;;;;;;14.16;53.18;99307.66;5070769;28;20077;-60
2021/10/27 12:55:26;;;;;;;8.05;3.95;;;;;;;14.76;52.29;99377.66;5059886;28;20040;-59
2021/10/27 12:58:17;;;;;;;7.45;3.13;;;;;;;14.75;53.15;99375.22;5064217;28;20088;-59
2021/10/27 13:06:14;;;;;;;65.38;47.13;;;;;;;14.85;52.10;99339.28;5040075;28;20404;-61
2021/10/27 13:29:52;;;;;;;51.13;32.45;;;;;;;15.29;46.50;99293.81;5040197;28;20394;-59
2021/10/27 13:32:20;;;;;;;30.42;20.83;;;;;;;15.51;47.41;99335.16;5054012;28;20036;-61
2021/10/27 13:34:46;;;;;;;91.47;77.03;;;;;;;15.40;47.92;99324.97;5018524;28;20597;-61
2021/10/27 13:37:12;;;;;;;248.57;202.52;;;;;;;15.16;48.11;99287.22;5023476;28;20139;-61
2021/10/27 13:39:38;;;;;;;68.00;53.08;;;;;;;15.38;48.14;99330.38;5037102;28;20038;-60
2021/10/27 13:42:50;;;;;;;10.32;6.18;;;;;;;15.15;47.75;99295.22;5039256;28;20033;-61
2021/10/27 13:45:21;;;;;;;7.22;3.15;;;;;;;15.34;45.83;99309.91;5046787;28;20048;-60
2021/10/27 14:06:38;;;;;;;583.25;395.77;;;;;;;15.99;50.06;99274.31;5052482;28;20123;-61
2021/10/27 14:09:15;;;;;;;142.65;81.30;;;;;;;16.26;51.35;99315.16;5046733;28;20020;-59
2021/10/27 14:11:58;;;;;;;690.28;515.60;;;;;;;16.25;51.42;99308.28;5064743;28;20484;-60
2021/10/27 14:22:45;;;;;;;1999.90;757.05;;;;;;;15.85;51.80;99271.38;5049720;28;20029;-59
2021/10/27 15:30:36;;;;;;;9.70;4.90;;;;;;;13.81;60.20;99261.44;5000684;28;20037;-58
2021/10/27 15:33:17;;;;;;;9.45;4.70;;;;;;;13.95;60.93;99300.16;5032044;28;20100;-59
2021/10/27 15:35:56;;;;;;;9.32;4.60;;;;;;;13.94;60.94;99292.44;5057694;28;20108;-59
2021/10/27 15:43:50;;;;;;;16.25;5.50;;;;;;;13.81;61.09;99296.25;5039339;28;20486;-59
2021/10/27 15:51:58;;;;;;;11.85;5.88;;;;;;;13.67;62.32;99294.13;5051534;28;20059;-60
2021/10/27 15:54:23;;;;;;;16.50;5.93;;;;;;;13.62;62.25;99285.94;5051613;28;20449;-60
2021/10/27 15:56:49;;;;;;;11.25;5.47;;;;;;;13.66;62.67;99292.50;5051626;28;20020;-59
2021/10/27 15:59:15;;;;;;;10.93;6.00;;;;;;;13.65;62.73;99296.94;5059730;28;20021;-59
2021/10/27 16:01:41;;;;;;;12.88;6.13;;;;;;;13.55;62.87;99285.69;5060727;28;20044;-59
2021/10/27 16:04:07;;;;;;;13.80;7.05;;;;;;;13.49;63.11;99291.53;5054739;28;20377;-59
2021/10/27 16:06:40;;;;;;;14.50;6.90;;;;;;;13.54;63.10;99291.06;5060735;28;20028;-59
2021/10/27 16:09:09;;;;;;;14.40;6.88;;;;;;;13.51;63.27;99297.41;5059236;28;20024;-59
2021/10/27 16:11:35;;;;;;;15.20;7.67;;;;;;;13.21;63.27;99249.69;5042853;28;20509;-59
2021/10/27 16:14:00;;;;;;;12.40;7.28;;;;;;;13.42;63.54;99291.28;5008705;28;20956;-59
2021/10/27 16:16:27;;;;;;;17.25;8.57;;;;;;;13.19;63.38;99262.09;5055966;28;20331;-59
2021/10/27 16:18:54;;;;;;;13.82;8.45;;;;;;;13.42;63.35;99301.72;5061931;28;20779;-59
2021/10/27 16:21:20;;;;;;;15.10;8.93;;;;;;;13.37;63.69;99293.50;5054805;28;20111;-59